createdAt,value
2019-05-03T00:00:59.716Z,11.85
2019-05-03T00:06:03.337Z,11.89
2019-05-03T00:11:05.071Z,11.92
2019-05-03T00:16:23.895Z,11.96
2019-05-03T00:21:25.566Z,11.99
2019-05-03T00:26:27.147Z,11.97
2019-05-03T00:31:29.047Z,11.98
2019-05-03T00:36:32.939Z,11.95
2019-05-03T00:41:34.651Z,11.94
2019-05-03T00:46:36.107Z,11.91
2019-05-03T00:51:37.703Z,11.85
2019-05-03T00:56:43.967Z,11.78
2019-05-03T01:01:43.750Z,11.71
2019-05-03T01:06:45.327Z,11.70
2019-05-03T01:11:46.914Z,11.66
2019-05-03T01:16:48.499Z,11.63
2019-05-03T01:21:51.527Z,11.53
2019-05-03T01:26:53.142Z,11.39
2019-05-03T01:31:54.619Z,11.33
2019-05-03T01:36:56.175Z,11.34
2019-05-03T01:41:57.649Z,11.27
2019-05-03T01:47:02.308Z,11.28
2019-05-03T01:52:14.927Z,11.32
2019-05-03T01:57:16.401Z,11.28
2019-05-03T02:02:28.831Z,11.21
2019-05-03T02:07:31.646Z,11.22
2019-05-03T02:12:33.194Z,11.23
2019-05-03T02:17:34.782Z,11.18
2019-05-03T02:22:36.369Z,11.14
2019-05-03T02:27:37.841Z,11.10
2019-05-03T02:32:39.407Z,11.08
2019-05-03T02:37:43.854Z,11.04
2019-05-03T02:43:05.669Z,11.02
2019-05-03T02:48:12.172Z,10.98
2019-05-03T02:53:15.221Z,10.95
2019-05-03T02:58:17.145Z,10.91
2019-05-03T03:03:19.059Z,10.93
2019-05-03T03:08:22.146Z,10.92
2019-05-03T03:13:28.100Z,10.92
2019-05-03T03:18:36.420Z,10.84
2019-05-03T03:23:56.265Z,10.82
2019-05-03T03:29:06.935Z,10.79
2019-05-03T03:34:10.817Z,10.85
2019-05-03T03:39:14.974Z,10.81
2019-05-03T03:44:20.047Z,10.82
2019-05-03T03:49:21.776Z,10.84
2019-05-03T03:54:25.802Z,10.92
2019-05-03T03:59:28.158Z,10.90
2019-05-03T04:04:30.131Z,10.92
2019-05-03T04:09:31.949Z,10.93
2019-05-03T04:14:36.694Z,10.93
2019-05-03T04:19:40.390Z,10.99
2019-05-03T04:24:42.180Z,10.95
2019-05-03T04:29:45.410Z,10.77
2019-05-03T04:34:47.232Z,10.68
2019-05-03T04:39:48.749Z,10.63
2019-05-03T04:44:50.283Z,10.64
2019-05-03T04:49:51.815Z,10.66
2019-05-03T04:54:56.270Z,10.66
2019-05-03T04:59:58.420Z,10.62
2019-05-03T05:04:59.905Z,10.55
2019-05-03T05:10:05.171Z,10.55
2019-05-03T05:15:07.226Z,10.58
2019-05-03T05:20:24.875Z,10.70
2019-05-03T05:25:28.706Z,10.82
2019-05-03T05:30:31.195Z,10.87
2019-05-03T05:35:32.793Z,10.91
2019-05-03T05:40:35.022Z,11.02
2019-05-03T05:45:36.593Z,11.11
2019-05-03T05:50:44.761Z,11.18
2019-05-03T05:55:47.933Z,11.19
2019-05-03T06:00:55.160Z,11.20
2019-05-03T06:05:58.730Z,11.25
2019-05-03T06:11:05.175Z,11.30
2019-05-03T06:16:08.787Z,11.31
2019-05-03T06:21:15.206Z,11.34
2019-05-03T06:26:35.340Z,11.35
2019-05-03T06:31:40.086Z,11.37
2019-05-03T06:36:44.281Z,11.42
2019-05-03T06:41:45.955Z,11.43
2019-05-03T06:46:49.544Z,11.43
2019-05-03T06:51:51.173Z,11.45
2019-05-03T06:56:52.700Z,11.45
2019-05-03T07:02:05.702Z,11.52
2019-05-03T07:07:07.371Z,11.55
2019-05-03T07:12:10.056Z,11.61
2019-05-03T07:17:11.681Z,11.66
2019-05-03T07:22:15.131Z,11.81
2019-05-03T07:27:16.591Z,11.89
2019-05-03T07:32:18.227Z,11.90
2019-05-03T07:37:19.700Z,11.97
2019-05-03T07:42:22.274Z,12.05
2019-05-03T07:47:24.607Z,12.12
2019-05-03T07:52:26.298Z,12.19
2019-05-03T07:57:30.854Z,12.30
2019-05-03T08:02:32.765Z,12.36
2019-05-03T08:07:35.629Z,12.45
2019-05-03T08:12:37.295Z,12.55
2019-05-03T08:17:38.917Z,12.60
2019-05-03T08:22:40.442Z,12.77
2019-05-03T08:27:42.181Z,12.87
2019-05-03T08:32:48.393Z,12.98
2019-05-03T08:37:51.678Z,13.03
2019-05-03T08:42:55.022Z,13.13
2019-05-03T08:47:57.288Z,13.34
2019-05-03T08:52:58.773Z,13.68
2019-05-03T08:58:00.295Z,13.89
2019-05-03T09:03:01.774Z,13.97
2019-05-03T09:08:05.682Z,14.06
2019-05-03T09:13:07.972Z,14.19
2019-05-03T09:18:09.655Z,14.32
2019-05-03T09:23:11.311Z,14.47
2019-05-03T09:28:14.906Z,14.59
2019-05-03T09:33:16.950Z,14.61
2019-05-03T09:38:18.490Z,14.62
2019-05-03T09:43:20.180Z,14.56
2019-05-03T09:48:22.259Z,14.50
2019-05-03T09:53:25.755Z,14.72
2019-05-03T09:58:27.277Z,14.85
2019-05-03T10:03:28.886Z,15.07
2019-05-03T10:08:30.428Z,15.17
2019-05-03T10:13:32.021Z,15.13
2019-05-03T10:18:35.311Z,15.30
2019-05-03T10:23:38.796Z,15.65
2019-05-03T10:28:40.310Z,15.86
2019-05-03T10:33:45.038Z,16.45
2019-05-03T10:38:47.915Z,16.81
2019-05-03T10:43:49.391Z,16.54
2019-05-03T10:48:50.997Z,16.57
2019-05-03T10:53:54.817Z,17.05
2019-05-03T10:59:01.441Z,17.55
2019-05-03T11:04:05.326Z,17.20
2019-05-03T11:09:07.760Z,17.10
2019-05-03T11:14:09.538Z,16.84
2019-05-03T11:19:11.219Z,16.50
2019-05-03T11:24:14.724Z,16.22
2019-05-03T11:29:16.186Z,15.33
2019-05-03T11:48:34.948Z,13.75
2019-05-03T11:53:36.712Z,12.85
2019-05-03T11:58:38.184Z,12.15
2019-05-03T12:03:45.196Z,11.74
2019-05-03T12:08:46.919Z,11.35
2019-05-03T12:14:01.445Z,10.97
2019-05-03T12:18:53.962Z,10.64
2019-05-03T12:23:56.571Z,10.58
2019-05-03T12:28:58.591Z,10.57
2019-05-03T12:34:00.067Z,10.44
2019-05-03T12:39:01.538Z,10.48
2019-05-03T12:44:05.062Z,10.51
2019-05-03T12:49:07.759Z,10.51
2019-05-03T12:54:09.224Z,10.47
2019-05-03T12:59:12.621Z,10.46
2019-05-03T13:04:19.263Z,10.40
2019-05-03T13:09:20.912Z,10.32
2019-05-03T13:14:22.513Z,10.16
2019-05-03T13:19:25.769Z,10.17
2019-05-03T13:24:27.314Z,10.05
2019-05-03T13:29:28.989Z,10.03
2019-05-03T13:34:30.563Z,10.03
2019-05-03T13:39:32.346Z,10.03
2019-05-03T13:44:35.582Z,10.06
2019-05-03T13:49:37.312Z,10.15
2019-05-03T13:54:38.782Z,10.24
2019-05-03T13:59:40.270Z,10.25
2019-05-03T14:04:50.161Z,10.34
2019-05-03T14:09:45.337Z,10.41
2019-05-03T14:14:55.332Z,10.40
2019-05-03T14:19:58.404Z,10.30
2019-05-03T14:24:59.847Z,10.23
2019-05-03T14:30:07.345Z,10.20
2019-05-03T14:35:10.177Z,10.25
2019-05-03T14:40:14.508Z,10.30
2019-05-03T14:45:15.858Z,10.23
2019-05-03T14:50:17.847Z,10.16
2019-05-03T14:55:37.954Z,10.04
2019-05-03T15:00:45.486Z,10.01
2019-05-03T15:05:47.177Z,10.00
2019-05-03T15:10:48.643Z,10.04
2019-05-03T15:15:50.592Z,10.05
2019-05-03T15:20:52.076Z,10.06
2019-05-03T15:25:54.593Z,10.07
2019-05-03T15:30:56.373Z,10.09
2019-05-03T15:35:57.858Z,10.03
2019-05-03T15:40:59.362Z,9.99
2019-05-03T15:46:05.369Z,9.85
2019-05-03T15:51:06.911Z,9.79
2019-05-03T15:56:08.439Z,9.78
2019-05-03T16:01:10.121Z,9.76
2019-05-03T16:06:11.815Z,9.68
2019-05-03T16:11:14.823Z,9.67
2019-05-03T16:16:16.774Z,9.64
2019-05-03T16:21:18.630Z,9.57
2019-05-03T16:26:20.206Z,9.56
2019-05-03T16:31:24.861Z,9.55
2019-05-03T16:36:27.577Z,9.51
2019-05-03T16:41:29.061Z,9.52
2019-05-03T16:46:30.635Z,9.45
2019-05-03T16:51:32.269Z,9.41
2019-05-03T16:56:35.370Z,9.41
2019-05-03T17:01:37.102Z,9.46
2019-05-03T17:06:40.484Z,9.45
2019-05-03T17:11:41.997Z,9.32
2019-05-03T17:16:45.055Z,9.24
2019-05-03T17:21:46.795Z,9.19
2019-05-03T17:26:48.551Z,9.18
2019-05-03T17:31:50.143Z,9.19
2019-05-03T17:36:51.678Z,9.23
2019-05-03T17:42:00.909Z,9.20
2019-05-03T17:47:04.315Z,9.20
2019-05-03T17:52:05.982Z,9.13
2019-05-03T17:57:15.489Z,9.05
2019-05-03T18:02:21.788Z,9.01
2019-05-03T18:07:30.374Z,8.95
2019-05-03T18:12:31.410Z,8.94
2019-05-03T18:17:35.125Z,8.90
2019-05-03T18:22:36.658Z,8.85
2019-05-03T18:27:38.339Z,8.81
2019-05-03T18:32:50.794Z,8.84
2019-05-03T18:37:58.550Z,8.90
2019-05-03T18:43:04.984Z,8.92
2019-05-03T18:48:06.558Z,8.94
2019-05-03T18:53:08.736Z,8.93
2019-05-03T18:58:10.849Z,8.91
2019-05-03T19:03:12.682Z,8.90
2019-05-03T19:08:17.298Z,8.83
2019-05-03T19:13:26.610Z,8.82
2019-05-03T19:18:30.142Z,8.79
2019-05-03T19:23:32.079Z,8.75
2019-05-03T19:28:35.270Z,8.70
2019-05-03T19:33:37.416Z,8.72
2019-05-03T19:38:39.020Z,8.81
2019-05-03T19:43:40.599Z,8.86
2019-05-03T19:48:42.091Z,8.85
2019-05-03T19:53:45.468Z,8.89
2019-05-03T19:58:47.621Z,8.89
2019-05-03T20:04:07.658Z,8.88
2019-05-03T20:09:11.036Z,8.81
2019-05-03T20:14:14.754Z,8.79
2019-05-03T20:19:20.868Z,8.74
2019-05-03T20:24:19.491Z,8.80
2019-05-03T20:29:21.079Z,8.78
2019-05-03T20:34:24.741Z,8.72
2019-05-03T20:39:26.057Z,8.72
2019-05-03T20:44:35.239Z,8.73
2019-05-03T20:49:36.617Z,8.77
2019-05-03T20:54:38.137Z,8.80
2019-05-03T20:59:45.187Z,8.79
2019-05-03T21:04:44.746Z,8.83
2019-05-03T21:09:46.697Z,8.78
2019-05-03T21:14:48.284Z,8.80
2019-05-03T21:19:55.157Z,8.83
2019-05-03T21:25:01.541Z,8.74
2019-05-03T21:30:08.087Z,8.72
2019-05-03T21:35:09.969Z,8.67
2019-05-03T21:40:12.291Z,8.66
2019-05-03T21:45:15.978Z,8.63
2019-05-03T21:50:19.288Z,8.54
2019-05-03T21:55:20.803Z,8.37
2019-05-03T22:00:24.782Z,8.24
2019-05-03T22:05:28.158Z,8.15
2019-05-03T22:10:29.768Z,8.18
2019-05-03T22:15:34.767Z,8.17
2019-05-03T22:20:36.334Z,8.18
2019-05-03T22:25:39.802Z,8.16
2019-05-03T22:30:41.287Z,8.11
2019-05-03T22:35:44.506Z,8.14
2019-05-03T22:40:46.775Z,8.22
2019-05-03T22:45:48.382Z,8.21
2019-05-03T22:50:49.846Z,8.17
2019-05-03T22:55:51.803Z,8.12
2019-05-03T23:00:55.013Z,8.10
2019-05-03T23:05:56.766Z,8.07
2019-05-03T23:10:58.265Z,8.06
2019-05-03T23:15:59.718Z,8.16
2019-05-03T23:21:15.256Z,8.22
2019-05-03T23:26:17.280Z,8.29
2019-05-03T23:31:18.738Z,8.37
2019-05-03T23:36:32.516Z,8.39
2019-05-03T23:41:24.527Z,8.44
2019-05-03T23:46:28.106Z,8.48
2019-05-03T23:51:47.982Z,8.48
2019-05-03T23:56:49.509Z,8.51
